createdAt,value
2017-09-21T15:33:51.603Z,19.67
2017-09-21T15:34:44.457Z,19.69
2017-09-21T15:35:44.800Z,19.67
2017-09-21T15:36:44.772Z,19.56
2017-09-21T15:37:44.774Z,19.63
2017-09-21T15:38:44.777Z,19.49
2017-09-21T15:39:44.494Z,19.49
2017-09-21T15:40:44.469Z,19.48
2017-09-21T15:41:44.790Z,19.44
2017-09-21T15:42:44.470Z,19.37
2017-09-21T15:43:44.164Z,19.31
2017-09-21T15:44:44.491Z,19.33
2017-09-21T15:45:44.165Z,19.36
2017-09-21T15:46:44.794Z,19.24
2017-09-21T15:47:44.489Z,19.21
2017-09-21T15:48:44.492Z,19.18
2017-09-21T15:49:44.802Z,19.15
2017-09-21T15:50:44.493Z,19.18
2017-09-21T15:51:44.495Z,19.11
2017-09-21T15:52:44.810Z,19.14
2017-09-21T15:53:44.806Z,19.16
2017-09-21T15:54:44.501Z,19.12
2017-09-21T15:55:44.818Z,19.09
2017-09-21T15:56:44.501Z,19.08
2017-09-21T15:57:44.811Z,19.04
2017-09-21T15:58:44.819Z,19.09
2017-09-21T15:59:44.506Z,19.08
2017-09-21T16:00:44.507Z,19.11
2017-09-21T16:01:44.519Z,19.04
2017-09-21T16:02:44.514Z,19.11
2017-09-21T16:03:44.821Z,19.14
2017-09-21T16:04:44.521Z,19.19
2017-09-21T16:05:44.516Z,19.18
2017-09-21T16:06:44.829Z,19.26
2017-09-21T16:07:44.524Z,19.26
2017-09-21T16:08:44.524Z,19.18
2017-09-21T16:09:44.834Z,19.21
2017-09-21T16:10:44.525Z,19.18
2017-09-21T16:11:44.526Z,19.16
2017-09-21T16:12:44.527Z,19.12
2017-09-21T16:13:44.846Z,19.11
2017-09-21T16:14:44.869Z,19.11
2017-09-21T16:15:44.548Z,19.04
2017-09-21T16:16:44.855Z,19.11
2017-09-21T16:17:44.852Z,19.04
2017-09-21T16:18:44.223Z,19
2017-09-21T16:19:44.882Z,19.02
2017-09-21T16:20:44.873Z,18.93
2017-09-21T16:21:44.904Z,18.92
2017-09-21T16:22:44.551Z,18.95
2017-09-21T16:23:44.873Z,18.9
2017-09-21T16:24:44.920Z,18.84
2017-09-21T16:25:44.866Z,18.83
2017-09-21T16:26:44.877Z,18.83
2017-09-21T16:27:44.630Z,18.74
2017-09-21T16:28:44.559Z,18.7
2017-09-21T16:29:44.255Z,18.65
2017-09-21T16:30:44.562Z,18.66
2017-09-21T16:31:44.581Z,18.58
2017-09-21T16:32:44.878Z,18.55
2017-09-21T16:33:44.565Z,18.5
2017-09-21T16:34:45.900Z,18.44
2017-09-21T16:35:44.880Z,18.35
2017-09-21T16:36:44.887Z,18.44
2017-09-21T16:37:44.912Z,18.29
2017-09-21T16:38:44.579Z,18.33
2017-09-21T16:39:44.578Z,18.23
2017-09-21T16:40:44.884Z,18.23
2017-09-21T16:41:44.569Z,18.26
2017-09-21T16:42:44.575Z,18.19
2017-09-21T16:43:44.884Z,18.15
2017-09-21T16:44:44.585Z,18.08
2017-09-21T16:45:44.578Z,18.19
2017-09-21T16:46:44.892Z,18.1
2017-09-21T16:47:44.905Z,18.03
2017-09-21T16:48:44.992Z,18.08
2017-09-21T16:49:44.672Z,17.92
2017-09-21T16:50:44.275Z,17.83
2017-09-21T16:51:44.587Z,17.95
2017-09-21T16:52:44.590Z,17.74
2017-09-21T16:53:44.904Z,17.85
2017-09-21T16:54:44.603Z,17.68
2017-09-21T16:55:44.280Z,17.6
2017-09-21T16:56:44.296Z,17.57
2017-09-21T16:57:44.608Z,17.54
2017-09-21T16:58:44.675Z,17.34
2017-09-21T16:59:44.915Z,17.42
2017-09-21T17:00:44.603Z,17.2
2017-09-21T17:01:44.600Z,17.16
2017-09-21T17:02:44.917Z,17.09
2017-09-21T17:03:44.915Z,17.02
2017-09-21T17:04:46.506Z,16.94
2017-09-21T17:05:44.922Z,16.83
2017-09-21T17:06:44.339Z,16.83
2017-09-21T17:07:44.958Z,16.78
2017-09-21T17:08:44.614Z,16.71
2017-09-21T17:09:44.960Z,16.71
2017-09-21T17:10:44.603Z,16.58
2017-09-21T17:11:44.600Z,16.53
2017-09-21T17:12:44.914Z,16.46
2017-09-21T17:13:44.924Z,16.46
2017-09-21T17:14:44.604Z,16.42
2017-09-21T17:15:44.603Z,16.35
2017-09-21T17:16:44.987Z,16.28
2017-09-21T17:17:44.688Z,16.33
2017-09-21T17:18:44.662Z,16.28
2017-09-21T17:19:44.301Z,16.23
2017-09-21T17:20:44.604Z,16.29
2017-09-21T17:21:44.612Z,16.12
2017-09-21T17:22:44.699Z,16.15
2017-09-21T17:23:44.606Z,16.2
2017-09-21T17:24:44.609Z,16.1
2017-09-21T17:25:44.606Z,16.12
2017-09-21T17:26:44.737Z,16.05
2017-09-21T17:27:44.297Z,16.04
2017-09-21T17:28:44.609Z,16.04
2017-09-21T17:29:45.107Z,16.01
2017-09-21T17:30:44.921Z,16.01
2017-09-21T17:31:44.613Z,16.08
2017-09-21T17:32:44.950Z,15.98
2017-09-21T17:33:44.607Z,16.02
2017-09-21T17:34:44.626Z,15.94
2017-09-21T17:35:44.616Z,15.94
2017-09-21T17:36:44.921Z,15.94
2017-09-21T17:37:44.610Z,15.82
2017-09-21T17:38:44.637Z,15.73
2017-09-21T17:39:44.933Z,15.68
2017-09-21T17:40:44.608Z,15.7
2017-09-21T17:41:44.613Z,15.72
2017-09-21T17:42:44.605Z,15.68
2017-09-21T17:43:44.671Z,15.54
2017-09-21T17:44:44.608Z,15.62
2017-09-21T17:45:44.755Z,15.52
2017-09-21T17:46:44.650Z,15.59
2017-09-21T17:47:44.922Z,15.47
2017-09-21T17:48:44.938Z,15.44
2017-09-21T17:49:44.817Z,15.36
2017-09-21T17:50:44.982Z,15.35
2017-09-21T17:51:44.609Z,15.25
2017-09-21T17:52:44.608Z,15.27
2017-09-21T17:53:44.923Z,15.24
2017-09-21T17:54:44.927Z,15.18
2017-09-21T17:55:44.607Z,15.18
2017-09-21T17:56:44.920Z,15.17
2017-09-21T17:57:44.910Z,15.18
2017-09-21T17:58:44.624Z,15.06
2017-09-21T17:59:44.290Z,15.02
2017-09-21T18:00:44.292Z,15.09
2017-09-21T18:01:44.924Z,15.04
2017-09-21T18:02:44.608Z,15.03
2017-09-21T18:03:44.606Z,15.11
2017-09-21T18:04:44.601Z,15
2017-09-21T18:05:46.502Z,15
2017-09-21T18:06:44.601Z,15.04
2017-09-21T18:07:44.916Z,14.94
2017-09-21T18:08:44.997Z,14.91
2017-09-21T18:09:44.916Z,14.99
2017-09-21T18:10:44.598Z,14.92
2017-09-21T18:11:44.303Z,14.96
2017-09-21T18:12:44.601Z,14.89
2017-09-21T18:13:44.595Z,14.89
2017-09-21T18:14:44.599Z,14.92
2017-09-21T18:15:44.284Z,14.89
2017-09-21T18:16:44.920Z,14.92
2017-09-21T18:17:44.650Z,14.89
2017-09-21T18:18:44.592Z,14.89
2017-09-21T18:19:44.929Z,14.82
2017-09-21T18:20:44.957Z,14.79
2017-09-21T18:21:44.281Z,14.82
2017-09-21T18:22:44.279Z,14.81
2017-09-21T18:23:44.916Z,14.72
2017-09-21T18:24:44.591Z,14.77
2017-09-21T18:25:44.299Z,14.79
2017-09-21T18:26:44.593Z,14.73
2017-09-21T18:27:44.586Z,14.62
2017-09-21T18:28:44.590Z,14.68
2017-09-21T18:29:44.910Z,14.69
2017-09-21T18:30:44.592Z,14.58
2017-09-21T18:31:44.589Z,14.62
2017-09-21T18:32:44.894Z,14.65
2017-09-21T18:33:44.604Z,14.62
2017-09-21T18:34:44.590Z,14.54
2017-09-21T18:35:49.445Z,14.53
2017-09-21T18:36:44.582Z,14.5
2017-09-21T18:37:44.897Z,14.44
2017-09-21T18:38:44.591Z,14.5
2017-09-21T18:39:44.888Z,14.45
2017-09-21T18:40:44.924Z,14.44
2017-09-21T18:41:44.593Z,14.37
2017-09-21T18:42:44.283Z,14.43
2017-09-21T18:43:44.260Z,14.33
2017-09-21T18:44:44.880Z,14.37
2017-09-21T18:45:44.897Z,14.29
2017-09-21T18:46:44.587Z,14.35
2017-09-21T18:47:44.600Z,14.37
2017-09-21T18:48:44.578Z,14.2
2017-09-21T18:49:44.258Z,14.29
2017-09-21T18:50:44.876Z,14.29
2017-09-21T18:51:44.729Z,14.22
2017-09-21T18:52:44.673Z,14.26
2017-09-21T18:53:44.972Z,14.35
2017-09-21T18:54:44.248Z,14.35
2017-09-21T18:55:44.872Z,14.29
2017-09-21T18:56:44.563Z,14.3
2017-09-21T18:57:44.570Z,14.22
2017-09-21T18:58:44.870Z,14.2
2017-09-21T18:59:44.556Z,14.2
2017-09-21T19:00:44.635Z,14.14
2017-09-21T19:01:44.616Z,14.15
2017-09-21T19:02:44.253Z,14.14
2017-09-21T19:03:45.171Z,14.11
2017-09-21T19:04:44.597Z,14.07
2017-09-21T19:05:44.643Z,14.2
2017-09-21T19:06:45.167Z,14.1
2017-09-21T19:07:45.041Z,14.15
2017-09-21T19:08:44.873Z,14.07
2017-09-21T19:09:44.744Z,14.04
2017-09-21T19:10:44.864Z,13.99
2017-09-21T19:11:44.416Z,14
2017-09-21T19:12:44.563Z,14
2017-09-21T19:13:45.159Z,13.89
2017-09-21T19:14:44.549Z,13.95
2017-09-21T19:15:44.603Z,13.79
2017-09-21T19:16:44.554Z,13.85
2017-09-21T19:17:44.861Z,13.81
2017-09-21T19:18:44.567Z,13.75
2017-09-21T19:19:44.613Z,13.7
2017-09-21T19:20:44.533Z,13.67
2017-09-21T19:21:44.576Z,13.7
2017-09-21T19:22:45.049Z,13.53
2017-09-21T19:23:44.545Z,13.57
2017-09-21T19:24:44.836Z,13.53
2017-09-21T19:25:44.226Z,13.57
2017-09-21T19:26:44.534Z,13.54
2017-09-21T19:27:44.553Z,13.49
2017-09-21T19:28:44.537Z,13.44
2017-09-21T19:29:44.532Z,13.44
2017-09-21T19:30:44.221Z,13.44
2017-09-21T19:31:44.852Z,13.38
2017-09-21T19:32:44.533Z,13.38
2017-09-21T19:33:44.851Z,13.27
2017-09-21T19:34:44.202Z,13.28
2017-09-21T19:35:44.531Z,13.23
2017-09-21T19:36:45.861Z,13.18
2017-09-21T19:37:44.833Z,13.2
2017-09-21T19:38:44.214Z,13.2
2017-09-21T19:39:44.754Z,13.13
2017-09-21T19:40:44.830Z,13.01
2017-09-21T19:41:44.496Z,12.98
2017-09-21T19:42:44.511Z,13.03
2017-09-21T19:43:44.542Z,12.98
2017-09-21T19:44:44.203Z,12.97
2017-09-21T19:45:44.501Z,12.98
2017-09-21T19:46:44.822Z,12.97
2017-09-21T19:47:44.248Z,12.87
2017-09-21T19:48:44.180Z,12.82
2017-09-21T19:49:44.226Z,12.82
2017-09-21T19:50:44.177Z,12.85
2017-09-21T19:51:44.906Z,12.83
2017-09-21T19:52:44.504Z,12.83
2017-09-21T19:53:44.819Z,12.79
2017-09-21T19:54:44.809Z,12.82
2017-09-21T19:55:44.500Z,12.78
2017-09-21T19:56:44.516Z,12.8
2017-09-21T19:57:44.807Z,12.75
2017-09-21T19:58:44.472Z,12.75
2017-09-21T19:59:44.793Z,12.82
2017-09-21T20:00:44.799Z,12.73
2017-09-21T20:01:44.463Z,12.78
2017-09-21T20:02:44.541Z,12.72
2017-09-21T20:03:44.446Z,12.65
2017-09-21T20:04:44.571Z,12.62
2017-09-21T20:05:44.793Z,12.65
2017-09-21T20:06:44.249Z,12.61
2017-09-21T20:07:44.502Z,12.6
2017-09-21T20:08:44.477Z,12.6
2017-09-21T20:09:44.782Z,12.57
2017-09-21T20:10:44.159Z,12.55
2017-09-21T20:11:44.801Z,12.58
2017-09-21T20:12:44.445Z,12.62
2017-09-21T20:13:44.447Z,12.58
2017-09-21T20:14:44.972Z,12.62
2017-09-21T20:15:44.796Z,12.55
2017-09-21T20:16:44.126Z,12.5
2017-09-21T20:17:44.747Z,12.5
2017-09-21T20:18:44.451Z,12.5
2017-09-21T20:19:44.440Z,12.5
2017-09-21T20:20:44.444Z,12.5
2017-09-21T20:21:44.810Z,12.54
2017-09-21T20:22:44.426Z,12.55
2017-09-21T20:23:44.465Z,12.55
2017-09-21T20:24:44.449Z,12.5
2017-09-21T20:25:44.416Z,12.5
2017-09-21T20:26:44.462Z,12.46
2017-09-21T20:27:44.441Z,12.62
2017-09-21T20:28:44.418Z,12.6
2017-09-21T20:29:44.415Z,12.58
2017-09-21T20:30:44.411Z,12.47
2017-09-21T20:31:44.416Z,12.54
2017-09-21T20:32:44.725Z,12.49
2017-09-21T20:33:44.717Z,12.53
2017-09-21T20:34:44.409Z,12.47
2017-09-21T20:35:44.091Z,12.53
2017-09-21T20:36:44.769Z,12.49
2017-09-21T20:37:44.400Z,12.54
2017-09-21T20:38:44.084Z,12.53
2017-09-21T20:39:44.390Z,12.53
2017-09-21T20:40:44.701Z,12.45
2017-09-21T20:41:44.444Z,12.4
2017-09-21T20:42:44.390Z,12.46
2017-09-21T20:43:44.700Z,12.43
2017-09-21T20:44:44.381Z,12.47
2017-09-21T20:45:44.383Z,12.35
2017-09-21T20:46:44.688Z,12.47
2017-09-21T20:47:44.381Z,12.45
2017-09-21T20:48:44.373Z,12.42
2017-09-21T20:49:44.098Z,12.53
2017-09-21T20:50:44.686Z,12.45
2017-09-21T20:51:44.415Z,12.49
2017-09-21T20:52:44.679Z,12.45
2017-09-21T20:53:44.679Z,12.47
2017-09-21T20:54:44.673Z,12.47
2017-09-21T20:55:44.678Z,12.45
2017-09-21T20:56:44.355Z,12.4
2017-09-21T20:57:44.355Z,12.42
2017-09-21T20:58:44.073Z,12.45
2017-09-21T20:59:44.865Z,12.39
2017-09-21T21:00:44.685Z,12.37
2017-09-21T21:01:44.029Z,12.36
2017-09-21T21:02:44.653Z,12.35
2017-09-21T21:03:44.392Z,12.37
2017-09-21T21:04:44.342Z,12.29
2017-09-21T21:05:44.401Z,12.25
2017-09-21T21:06:44.654Z,12.27
2017-09-21T21:07:44.655Z,12.21
2017-09-21T21:08:44.325Z,12.18
2017-09-21T21:09:44.020Z,12.22
2017-09-21T21:10:44.346Z,12.17
2017-09-21T21:11:44.321Z,12.13
2017-09-21T21:12:44.317Z,12.06
2017-09-21T21:13:44.012Z,12.1
2017-09-21T21:14:44.002Z,12.06
2017-09-21T21:15:44.035Z,12.13
2017-09-21T21:16:44.629Z,12
2017-09-21T21:17:44.617Z,12.09
2017-09-21T21:18:44.615Z,12.03
2017-09-21T21:19:44.642Z,12.06
2017-09-21T21:20:44.308Z,11.91
2017-09-21T21:21:44.046Z,12.03
2017-09-21T21:22:44.297Z,12.07
2017-09-21T21:23:44.297Z,11.95
2017-09-21T21:24:43.981Z,12.04
2017-09-21T21:25:44.605Z,12.02
2017-09-21T21:26:44.287Z,12
2017-09-21T21:27:44.606Z,11.97
2017-09-21T21:28:43.977Z,11.94
2017-09-21T21:29:44.299Z,11.84
2017-09-21T21:30:44.586Z,11.87
2017-09-21T21:31:44.275Z,11.91
2017-09-21T21:32:44.587Z,11.94
2017-09-21T21:33:44.270Z,11.91
2017-09-21T21:34:44.588Z,11.86
2017-09-21T21:35:44.572Z,11.86
2017-09-21T21:36:44.572Z,11.91
2017-09-21T21:37:44.290Z,11.83
2017-09-21T21:38:43.960Z,11.78
2017-09-21T21:39:44.263Z,11.83
2017-09-21T21:40:43.939Z,11.84
2017-09-21T21:41:44.256Z,11.86
2017-09-21T21:42:43.936Z,11.83
2017-09-21T21:43:43.930Z,11.78
2017-09-21T21:44:44.239Z,11.8
2017-09-21T21:45:44.553Z,11.91
2017-09-21T21:46:44.237Z,11.83
2017-09-21T21:47:44.236Z,11.75
2017-09-21T21:48:43.923Z,11.84
2017-09-21T21:49:44.551Z,11.78
2017-09-21T21:50:44.226Z,11.77
2017-09-21T21:51:44.587Z,11.72
2017-09-21T21:52:44.537Z,11.75
2017-09-21T21:53:44.534Z,11.77
2017-09-21T21:54:44.533Z,11.72
2017-09-21T21:55:44.535Z,11.75
2017-09-21T21:56:44.213Z,11.7
2017-09-21T21:57:44.213Z,11.68
2017-09-21T21:58:44.533Z,11.66
2017-09-21T21:59:43.901Z,11.66
2017-09-21T22:00:44.511Z,11.62
2017-09-21T22:01:44.515Z,11.57
2017-09-21T22:02:44.506Z,11.57
2017-09-21T22:03:44.194Z,11.62
2017-09-21T22:04:43.880Z,11.57
2017-09-21T22:05:44.500Z,11.59
2017-09-21T22:06:43.929Z,11.57
2017-09-21T22:07:44.501Z,11.6
2017-09-21T22:08:44.180Z,11.48
2017-09-21T22:09:44.173Z,11.51
2017-09-21T22:10:43.860Z,11.5
2017-09-21T22:11:44.480Z,11.47
2017-09-21T22:12:44.481Z,11.47
2017-09-21T22:13:44.168Z,11.47
2017-09-21T22:14:44.483Z,11.44
2017-09-21T22:15:44.485Z,11.4
2017-09-21T22:16:44.485Z,11.44
2017-09-21T22:17:43.840Z,11.44
2017-09-21T22:18:44.160Z,11.41
2017-09-21T22:19:44.462Z,11.4
2017-09-21T22:20:44.146Z,11.43
2017-09-21T22:21:44.145Z,11.44
2017-09-21T22:22:44.458Z,11.43
2017-09-21T22:23:44.140Z,11.43
2017-09-21T22:24:44.136Z,11.41
2017-09-21T22:25:44.447Z,11.37
2017-09-21T22:26:44.449Z,11.36
2017-09-21T22:27:44.455Z,11.36
2017-09-21T22:28:44.439Z,11.45
2017-09-21T22:59:35.945Z,11.41
2017-09-21T23:00:34.326Z,11.33
2017-09-21T23:01:34.326Z,11.32
2017-09-21T23:02:34.308Z,11.25
2017-09-21T23:03:33.989Z,11.17
2017-09-21T23:04:33.977Z,11.12
2017-09-21T23:05:33.973Z,11.1
2017-09-21T23:06:33.658Z,11.14
2017-09-21T23:07:33.977Z,11
2017-09-21T23:08:33.953Z,11.07
2017-09-21T23:09:33.950Z,10.99
2017-09-21T23:10:33.943Z,10.9
2017-09-21T23:11:34.248Z,10.93
2017-09-21T23:12:33.940Z,10.87
2017-09-21T23:13:33.928Z,10.94
2017-09-21T23:14:33.977Z,10.9
2017-09-21T23:15:33.925Z,10.93
2017-09-21T23:16:34.263Z,10.9
2017-09-21T23:17:34.225Z,10.92
2017-09-21T23:18:33.909Z,10.9
2017-09-21T23:19:33.904Z,10.94
2017-09-21T23:20:33.898Z,10.94
2017-09-21T23:21:33.585Z,10.93
2017-09-21T23:22:33.892Z,10.92
2017-09-21T23:23:33.887Z,10.82
2017-09-21T23:26:05.695Z,10.84
2017-09-21T23:26:53.955Z,10.76
2017-09-21T23:27:54.568Z,10.84
2017-09-21T23:28:54.257Z,10.82
2017-09-21T23:29:54.262Z,10.81
2017-09-21T23:30:54.557Z,10.74
2017-09-21T23:31:54.558Z,10.81
2017-09-21T23:32:54.560Z,10.79
2017-09-21T23:33:54.243Z,10.86
2017-09-21T23:34:54.550Z,10.72
2017-09-21T23:35:54.546Z,10.79
2017-09-21T23:36:54.229Z,10.87
2017-09-21T23:37:54.536Z,10.74
2017-09-21T23:38:54.537Z,10.82
2017-09-21T23:39:54.524Z,10.72
2017-09-21T23:40:54.524Z,10.76
2017-09-21T23:41:54.527Z,10.74
2017-09-21T23:42:54.518Z,10.69
2017-09-21T23:43:54.554Z,10.78
2017-09-21T23:44:54.516Z,10.75
2017-09-21T23:45:54.201Z,10.75
2017-09-21T23:46:54.512Z,10.72
2017-09-21T23:47:54.197Z,10.75
2017-09-21T23:48:54.187Z,10.79
2017-09-21T23:49:54.499Z,10.64
2017-09-21T23:50:54.502Z,10.71
2017-09-21T23:51:54.186Z,10.59
2017-09-21T23:52:53.866Z,10.69
2017-09-21T23:53:54.481Z,10.57
2017-09-21T23:54:54.487Z,10.61
2017-09-21T23:55:54.169Z,10.63
2017-09-21T23:56:54.478Z,10.61
2017-09-21T23:57:54.170Z,10.61
2017-09-21T23:58:54.159Z,10.56
2017-09-21T23:59:54.161Z,10.64
